Time;durP1;ratioP1;P1;durP2;ratioP2;P2;SDS_P1;SDS_P2;PMS_P1;PMS_P2;Temp;Humidity;BMP_temperature;BMP_pressure;BME280_temperature;BME280_humidity;BME280_pressure;Samples;Min_cycle;Max_cycle;Signal;HPM_P1;HPM_P2
2022/04/20 00:01:19;;;;;;;3.47;1.20;;;;;;;;;;5098870;27;20035;-72
2022/04/20 00:03:45;;;;;;;3.03;1.10;;;;;;;;;;5072961;27;20096;-72
2022/04/20 00:06:11;;;;;;;4.38;1.45;;;;;;;;;;5086661;28;20516;-72
2022/04/20 00:08:37;;;;;;;3.78;1.30;;;;;;;;;;5081444;28;20146;-72
2022/04/20 00:11:03;;;;;;;4.38;1.42;;;;;;;;;;5081495;28;20254;-73
2022/04/20 00:13:29;;;;;;;2.75;1.10;;;;;;;;;;5081541;28;20035;-73
2022/04/20 00:15:55;;;;;;;3.28;1.27;;;;;;;;;;5081543;28;20246;-72
2022/04/20 00:18:21;;;;;;;4.07;1.40;;;;;;;;;;5081889;28;20046;-73
2022/04/20 00:20:47;;;;;;;3.38;1.27;;;;;;;;;;5081615;28;20472;-73
2022/04/20 00:23:13;;;;;;;4.10;1.30;;;;;;;;;;5081610;28;20107;-73
2022/04/20 00:25:39;;;;;;;3.03;1.20;;;;;;;;;;5081649;28;20050;-72
2022/04/20 00:28:05;;;;;;;3.50;1.27;;;;;;;;;;5081418;28;20055;-73
2022/04/20 00:30:31;;;;;;;4.82;1.60;;;;;;;;;;5081079;28;20058;-72
2022/04/20 00:32:59;;;;;;;3.30;1.27;;;;;;;;;;5081139;28;20184;-72
2022/04/20 00:35:25;;;;;;;2.95;1.15;;;;;;;;;;5081291;28;20115;-72
2022/04/20 00:37:51;;;;;;;3.08;1.25;;;;;;;;;;5081251;28;20193;-73
2022/04/20 00:40:17;;;;;;;3.53;1.40;;;;;;;;;;5079204;28;20521;-72
2022/04/20 00:42:43;;;;;;;4.28;1.30;;;;;;;;;;5078114;28;20447;-72
2022/04/20 00:45:10;;;;;;;4.03;1.40;;;;;;;;;;5081422;28;20365;-73
2022/04/20 00:47:37;;;;;;;5.10;1.67;;;;;;;;;;5081188;28;20050;-72
2022/04/20 00:50:03;;;;;;;3.90;1.30;;;;;;;;;;5081191;28;20043;-72
2022/04/20 00:52:29;;;;;;;3.97;1.30;;;;;;;;;;5080867;28;20085;-72
2022/04/20 00:54:55;;;;;;;4.32;1.60;;;;;;;;;;5081170;28;20391;-73
2022/04/20 00:57:21;;;;;;;4.75;1.50;;;;;;;;;;5081457;28;20054;-72
2022/04/20 00:59:49;;;;;;;4.90;1.60;;;;;;;;;;5081122;28;20154;-73
2022/04/20 01:02:15;;;;;;;4.40;1.75;;;;;;;;;;5092889;28;20043;-73
2022/04/20 01:04:41;;;;;;;3.80;1.73;;;;;;;;;;5100666;28;20070;-72
2022/04/20 01:07:14;;;;;;;5.22;1.50;;;;;;;;;;5101632;28;20053;-73
2022/04/20 01:09:41;;;;;;;5.38;1.38;;;;;;;;;;5101359;28;20067;-72
2022/04/20 01:12:07;;;;;;;4.85;1.50;;;;;;;;;;5084427;28;20120;-72
2022/04/20 01:14:34;;;;;;;3.75;1.50;;;;;;;;;;5084712;28;20039;-72
2022/04/20 01:16:59;;;;;;;5.05;1.63;;;;;;;;;;5101241;28;20397;-73
2022/04/20 01:19:33;;;;;;;3.10;1.33;;;;;;;;;;5101595;27;20672;-72
2022/04/20 01:21:59;;;;;;;5.30;1.85;;;;;;;;;;5105346;27;20395;-72
2022/04/20 01:24:25;;;;;;;3.97;1.60;;;;;;;;;;5105244;27;20043;-73
2022/04/20 01:26:51;;;;;;;5.97;1.70;;;;;;;;;;5123390;27;20051;-73
2022/04/20 01:29:18;;;;;;;4.30;1.50;;;;;;;;;;5105685;27;20099;-72
2022/04/20 01:31:44;;;;;;;4.38;1.77;;;;;;;;;;5104666;27;20122;-73
2022/04/20 01:34:10;;;;;;;4.10;1.40;;;;;;;;;;5104644;27;20135;-73
2022/04/20 01:36:36;;;;;;;3.78;1.52;;;;;;;;;;5104666;27;20039;-73
2022/04/20 01:39:03;;;;;;;4.57;1.63;;;;;;;;;;5104905;27;20042;-73
2022/04/20 01:41:29;;;;;;;3.60;1.50;;;;;;;;;;5104781;27;20049;-72
2022/04/20 01:43:55;;;;;;;3.92;1.45;;;;;;;;;;5122842;27;20039;-72
2022/04/20 01:46:21;;;;;;;4.47;1.60;;;;;;;;;;5087531;27;20095;-71
2022/04/20 01:48:47;;;;;;;4.65;1.65;;;;;;;;;;5104619;27;20119;-71
2022/04/20 01:53:58;;;;;;;4.82;1.67;;;;;;;;;;5103513;27;20039;-72
2022/04/20 01:56:24;;;;;;;3.50;1.33;;;;;;;;;;5122801;27;20466;-72
2022/04/20 01:58:50;;;;;;;3.97;1.40;;;;;;;;;;5104510;27;20054;-72
2022/04/20 02:04:01;;;;;;;4.22;1.75;;;;;;;;;;5104198;27;20047;-73
2022/04/20 02:06:27;;;;;;;3.58;1.48;;;;;;;;;;5104478;27;20195;-71
2022/04/20 02:08:52;;;;;;;4.07;1.50;;;;;;;;;;5104099;27;20042;-72
2022/04/20 02:11:19;;;;;;;4.38;1.63;;;;;;;;;;5076142;28;20043;-72
2022/04/20 02:13:44;;;;;;;4.38;1.50;;;;;;;;;;5083759;28;20063;-73
2022/04/20 02:16:10;;;;;;;3.67;1.52;;;;;;;;;;5084238;28;20071;-72
2022/04/20 02:18:36;;;;;;;3.88;1.45;;;;;;;;;;5083243;28;20531;-72
2022/04/20 02:21:02;;;;;;;3.88;1.70;;;;;;;;;;5083466;28;20313;-72
2022/04/20 02:23:28;;;;;;;4.38;1.20;;;;;;;;;;5083555;28;20449;-71
2022/04/20 02:25:55;;;;;;;4.28;1.27;;;;;;;;;;5066327;28;20103;-71
2022/04/20 02:28:21;;;;;;;3.53;1.35;;;;;;;;;;5079992;28;20052;-71
2022/04/20 02:30:47;;;;;;;3.72;1.55;;;;;;;;;;5077244;28;20147;-72
2022/04/20 02:33:13;;;;;;;4.00;1.50;;;;;;;;;;5072158;28;20587;-72
2022/04/20 02:35:40;;;;;;;4.80;1.58;;;;;;;;;;5086938;28;20074;-72
2022/04/20 02:38:09;;;;;;;4.78;1.55;;;;;;;;;;5100316;28;20127;-72
2022/04/20 02:40:35;;;;;;;4.13;1.40;;;;;;;;;;5091593;28;20641;-72
2022/04/20 02:43:02;;;;;;;4.10;1.50;;;;;;;;;;5074295;28;20212;-72
2022/04/20 02:45:28;;;;;;;4.22;1.40;;;;;;;;;;5083233;28;20183;-72
2022/04/20 02:47:54;;;;;;;3.15;1.17;;;;;;;;;;5100384;28;20067;-73
2022/04/20 02:50:20;;;;;;;5.85;1.70;;;;;;;;;;5100039;28;20354;-73
2022/04/20 02:52:47;;;;;;;4.05;1.65;;;;;;;;;;5083107;28;20043;-72
2022/04/20 02:55:12;;;;;;;4.80;1.70;;;;;;;;;;5099344;28;20075;-73
2022/04/20 02:57:39;;;;;;;4.80;1.55;;;;;;;;;;5100223;28;20135;-73
2022/04/20 03:00:05;;;;;;;4.30;1.30;;;;;;;;;;5099611;28;20793;-73
2022/04/20 03:02:31;;;;;;;3.90;1.40;;;;;;;;;;5095671;28;20478;-73
2022/04/20 03:04:58;;;;;;;3.75;1.50;;;;;;;;;;5090506;28;20035;-73
2022/04/20 03:07:24;;;;;;;3.42;1.20;;;;;;;;;;5088038;28;20186;-73
2022/04/20 03:09:50;;;;;;;3.88;1.67;;;;;;;;;;5062725;28;20265;-73
2022/04/20 03:12:16;;;;;;;4.57;1.60;;;;;;;;;;5081546;28;20043;-73
2022/04/20 03:14:42;;;;;;;4.45;1.60;;;;;;;;;;5089060;28;20146;-73
2022/04/20 03:17:08;;;;;;;4.38;1.50;;;;;;;;;;5061877;28;20078;-73
2022/04/20 03:19:34;;;;;;;3.53;1.40;;;;;;;;;;5078394;28;20076;-73
2022/04/20 03:22:00;;;;;;;2.72;1.25;;;;;;;;;;5079081;28;20051;-73
2022/04/20 03:24:26;;;;;;;3.92;1.52;;;;;;;;;;5078811;28;20047;-73
2022/04/20 03:26:52;;;;;;;4.00;1.45;;;;;;;;;;5078955;28;20056;-73
2022/04/20 03:29:18;;;;;;;5.60;1.75;;;;;;;;;;5080320;28;20047;-73
2022/04/20 03:31:44;;;;;;;4.72;1.80;;;;;;;;;;5061913;28;20040;-73
2022/04/20 03:34:11;;;;;;;3.38;1.40;;;;;;;;;;5085209;28;20044;-74
2022/04/20 03:36:37;;;;;;;3.63;1.42;;;;;;;;;;5092516;28;20424;-73
2022/04/20 03:39:03;;;;;;;3.30;1.30;;;;;;;;;;5061701;28;20048;-73
2022/04/20 03:41:29;;;;;;;4.88;1.80;;;;;;;;;;5061800;28;20328;-73
2022/04/20 03:43:55;;;;;;;4.50;1.55;;;;;;;;;;5078029;28;20047;-73
2022/04/20 03:46:24;;;;;;;3.75;1.33;;;;;;;;;;5078675;28;20345;-73
2022/04/20 03:48:51;;;;;;;3.45;1.48;;;;;;;;;;5061721;28;20097;-73
2022/04/20 03:51:17;;;;;;;3.13;1.40;;;;;;;;;;5078665;28;20094;-73
2022/04/20 03:53:43;;;;;;;2.75;1.30;;;;;;;;;;5078412;28;20047;-73
2022/04/20 03:56:09;;;;;;;4.13;1.35;;;;;;;;;;5078301;28;20036;-73
2022/04/20 03:58:36;;;;;;;4.07;1.52;;;;;;;;;;5078264;28;20054;-73
2022/04/20 04:01:02;;;;;;;4.53;1.38;;;;;;;;;;5077678;28;20082;-73
2022/04/20 04:03:28;;;;;;;4.85;1.60;;;;;;;;;;5078640;28;20050;-72
2022/04/20 04:05:56;;;;;;;3.60;1.50;;;;;;;;;;5070775;28;20048;-72
2022/04/20 04:08:22;;;;;;;4.15;1.20;;;;;;;;;;5074951;28;20054;-73
2022/04/20 04:10:49;;;;;;;4.00;1.50;;;;;;;;;;5098864;28;20058;-73
2022/04/20 04:13:16;;;;;;;4.03;1.58;;;;;;;;;;5098570;28;20059;-71
2022/04/20 04:15:43;;;;;;;3.97;1.60;;;;;;;;;;5098245;28;20054;-72
2022/04/20 04:18:09;;;;;;;3.65;1.40;;;;;;;;;;5098221;28;20047;-72
2022/04/20 04:20:35;;;;;;;3.40;1.40;;;;;;;;;;5098170;28;20051;-72
2022/04/20 04:23:02;;;;;;;4.35;1.60;;;;;;;;;;5098544;28;20043;-71
2022/04/20 04:25:28;;;;;;;4.63;1.50;;;;;;;;;;5098892;28;20044;-71
2022/04/20 04:27:54;;;;;;;3.78;1.42;;;;;;;;;;5098525;28;20055;-72
2022/04/20 04:30:20;;;;;;;3.10;1.33;;;;;;;;;;5099659;28;20104;-72
2022/04/20 04:32:47;;;;;;;3.15;1.40;;;;;;;;;;5098350;28;20278;-72
2022/04/20 04:35:13;;;;;;;2.65;1.20;;;;;;;;;;5098027;28;20471;-72
2022/04/20 04:37:39;;;;;;;2.95;1.25;;;;;;;;;;5098109;28;20149;-71
2022/04/20 04:40:06;;;;;;;4.30;1.60;;;;;;;;;;5098713;28;20046;-71
2022/04/20 04:42:32;;;;;;;2.78;1.10;;;;;;;;;;5070988;28;20054;-72
2022/04/20 04:48:36;;;;;;;3.63;1.40;;;;;;;;;;5085555;28;20206;-72
2022/04/20 04:50:28;;;;;;;;;;;;;;;;;;5097593;28;20276;-72
2022/04/20 04:52:54;;;;;;;4.22;1.60;;;;;;;;;;5098174;28;19996;-72
2022/04/20 04:55:20;;;;;;;3.17;1.33;;;;;;;;;;5101785;28;20504;-71
2022/04/20 04:57:46;;;;;;;4.15;1.40;;;;;;;;;;5105011;27;20043;-72
2022/04/20 05:00:13;;;;;;;3.58;1.42;;;;;;;;;;5101828;28;20665;-71
2022/04/20 05:02:39;;;;;;;3.78;1.30;;;;;;;;;;5101736;28;20050;-72
2022/04/20 05:05:05;;;;;;;2.80;1.30;;;;;;;;;;5101655;28;20450;-72
2022/04/20 05:07:31;;;;;;;3.83;1.40;;;;;;;;;;5103027;27;20075;-72
2022/04/20 05:09:57;;;;;;;4.30;1.50;;;;;;;;;;5097049;28;20527;-72
2022/04/20 05:12:23;;;;;;;2.95;1.10;;;;;;;;;;5084600;28;20162;-72
2022/04/20 05:14:49;;;;;;;4.05;1.30;;;;;;;;;;5101828;28;20075;-72
2022/04/20 05:17:15;;;;;;;2.88;1.10;;;;;;;;;;5100113;28;20415;-72
2022/04/20 05:19:41;;;;;;;2.90;1.10;;;;;;;;;;5070060;28;20043;-72
2022/04/20 05:22:07;;;;;;;4.07;1.70;;;;;;;;;;5087062;28;20492;-72
2022/04/20 05:24:35;;;;;;;4.05;1.55;;;;;;;;;;5094475;28;20114;-71
2022/04/20 05:27:02;;;;;;;4.78;1.35;;;;;;;;;;5081196;28;20067;-71
2022/04/20 05:29:28;;;;;;;3.45;1.27;;;;;;;;;;5081239;28;20060;-72
2022/04/20 05:31:55;;;;;;;5.30;1.85;;;;;;;;;;5081014;28;20661;-72
2022/04/20 05:34:23;;;;;;;7.82;1.95;;;;;;;;;;5081677;28;20047;-72
2022/04/20 05:42:32;;;;;;;;;;;;;;;;;;5102042;28;20400;-73
2022/04/20 05:44:58;;;;;;;6.05;1.65;;;;;;;;;;5097688;28;19965;-73
2022/04/20 05:47:24;;;;;;;5.15;1.73;;;;;;;;;;5095461;27;20039;-72
2022/04/20 05:49:50;;;;;;;4.40;1.55;;;;;;;;;;5071862;27;20069;-72
2022/04/20 05:52:16;;;;;;;8.68;1.70;;;;;;;;;;5093730;28;20485;-72
2022/04/20 05:54:42;;;;;;;3.72;1.40;;;;;;;;;;5101857;27;20050;-73
2022/04/20 05:57:08;;;;;;;4.78;1.67;;;;;;;;;;5081454;28;20388;-72
2022/04/20 05:59:34;;;;;;;6.78;2.00;;;;;;;;;;5074249;28;20047;-74
2022/04/20 06:02:00;;;;;;;12.07;2.67;;;;;;;;;;5074491;28;20089;-74
2022/04/20 06:04:28;;;;;;;14.38;3.20;;;;;;;;;;5070029;27;20102;-73
2022/04/20 06:06:54;;;;;;;12.68;4.35;;;;;;;;;;5041543;28;20568;-73
2022/04/20 06:09:20;;;;;;;11.68;3.72;;;;;;;;;;5062473;28;20148;-73
2022/04/20 06:11:46;;;;;;;9.38;3.53;;;;;;;;;;5053434;28;20059;-73
2022/04/20 06:14:12;;;;;;;8.73;3.28;;;;;;;;;;5081084;28;20044;-75
2022/04/20 06:16:38;;;;;;;8.82;3.60;;;;;;;;;;5061626;28;20451;-73
2022/04/20 06:19:04;;;;;;;9.90;3.78;;;;;;;;;;5064583;28;20064;-75
2022/04/20 06:21:30;;;;;;;13.23;4.18;;;;;;;;;;5093689;28;20103;-74
2022/04/20 06:23:56;;;;;;;8.25;3.78;;;;;;;;;;5102858;28;20039;-72
2022/04/20 06:26:22;;;;;;;7.57;3.42;;;;;;;;;;5106936;27;20055;-72
2022/04/20 06:28:48;;;;;;;8.38;3.38;;;;;;;;;;5090547;27;20595;-72
2022/04/20 06:31:14;;;;;;;8.73;3.63;;;;;;;;;;5104064;27;20582;-72
2022/04/20 06:33:40;;;;;;;9.63;2.78;;;;;;;;;;5103271;27;20123;-72
2022/04/20 06:36:06;;;;;;;7.03;2.70;;;;;;;;;;5086515;27;20118;-70
2022/04/20 06:38:32;;;;;;;6.70;2.75;;;;;;;;;;5103542;27;20054;-72
2022/04/20 06:40:58;;;;;;;7.97;2.90;;;;;;;;;;5103633;27;20347;-72
2022/04/20 06:43:25;;;;;;;7.18;3.17;;;;;;;;;;5086791;27;20028;-71
2022/04/20 06:45:51;;;;;;;8.25;2.65;;;;;;;;;;5103701;27;20442;-71
2022/04/20 06:48:17;;;;;;;6.97;2.50;;;;;;;;;;5103443;27;20039;-71
2022/04/20 06:50:43;;;;;;;6.82;2.83;;;;;;;;;;5102725;27;20130;-71
2022/04/20 06:58:39;;;;;;;6.90;2.40;;;;;;;;;;5100414;28;20047;-71
2022/04/20 07:01:07;;;;;;;5.82;2.35;;;;;;;;;;5082736;28;20754;-71
2022/04/20 07:03:34;;;;;;;5.10;2.33;;;;;;;;;;5082691;28;20043;-71
2022/04/20 07:06:00;;;;;;;6.85;2.40;;;;;;;;;;5082802;28;20089;-71
2022/04/20 07:08:26;;;;;;;5.30;2.20;;;;;;;;;;5083082;28;20480;-71
2022/04/20 07:10:53;;;;;;;6.18;2.00;;;;;;;;;;5082826;28;20183;-70
2022/04/20 07:13:19;;;;;;;5.70;2.20;;;;;;;;;;5082784;28;20055;-70
2022/04/20 07:15:45;;;;;;;6.07;2.35;;;;;;;;;;5082309;28;20500;-71
2022/04/20 07:18:11;;;;;;;6.25;2.63;;;;;;;;;;5081973;28;20081;-71
2022/04/20 07:20:37;;;;;;;5.97;2.10;;;;;;;;;;5102030;27;20138;-71
2022/04/20 07:23:04;;;;;;;6.88;2.17;;;;;;;;;;5102121;27;20638;-72
2022/04/20 07:25:30;;;;;;;4.03;1.67;;;;;;;;;;5103092;27;20126;-71
2022/04/20 07:27:56;;;;;;;5.63;1.83;;;;;;;;;;5120870;27;20058;-72
2022/04/20 07:30:22;;;;;;;7.22;1.90;;;;;;;;;;5102906;27;20365;-71
2022/04/20 07:32:48;;;;;;;4.88;1.83;;;;;;;;;;5085404;27;20182;-71
2022/04/20 07:35:15;;;;;;;4.80;1.80;;;;;;;;;;5102216;27;20046;-71
2022/04/20 07:37:41;;;;;;;4.88;1.70;;;;;;;;;;5102443;27;20456;-71
2022/04/20 07:40:07;;;;;;;5.88;1.95;;;;;;;;;;5102301;27;20047;-71
2022/04/20 07:42:35;;;;;;;9.75;1.83;;;;;;;;;;5103128;27;20039;-71
2022/04/20 07:45:01;;;;;;;8.85;2.05;;;;;;;;;;5101723;27;20031;-71
2022/04/20 07:47:28;;;;;;;5.18;1.70;;;;;;;;;;5064622;28;20460;-71
2022/04/20 07:52:38;;;;;;;;;;;;;;;;;;5102553;27;20611;-71
2022/04/20 07:55:08;;;;;;;9.27;1.90;;;;;;;;;;5102214;27;20099;-73
2022/04/20 07:57:35;;;;;;;6.00;1.88;;;;;;;;;;5102393;28;20051;-73
2022/04/20 08:00:01;;;;;;;9.32;2.97;;;;;;;;;;5102140;27;20279;-73
2022/04/20 08:02:27;;;;;;;11.25;2.80;;;;;;;;;;5102448;27;20039;-73
2022/04/20 08:04:53;;;;;;;11.80;2.78;;;;;;;;;;5101667;27;20332;-73
2022/04/20 08:07:19;;;;;;;9.77;2.85;;;;;;;;;;5101994;27;20031;-73
2022/04/20 08:09:45;;;;;;;10.82;2.72;;;;;;;;;;5102234;27;20280;-72
2022/04/20 08:12:11;;;;;;;7.32;2.47;;;;;;;;;;5102152;27;20043;-72
2022/04/20 08:14:37;;;;;;;13.63;2.78;;;;;;;;;;5102269;28;20153;-73
2022/04/20 08:17:03;;;;;;;8.20;2.83;;;;;;;;;;5102054;27;20496;-73
2022/04/20 08:19:30;;;;;;;8.15;2.50;;;;;;;;;;5101504;27;20039;-73
2022/04/20 08:21:56;;;;;;;9.60;2.75;;;;;;;;;;5101776;27;20039;-74
2022/04/20 08:24:22;;;;;;;5.93;2.53;;;;;;;;;;5101686;28;20096;-74
2022/04/20 08:26:48;;;;;;;10.52;2.90;;;;;;;;;;5101961;27;20190;-74
2022/04/20 08:29:14;;;;;;;8.65;2.40;;;;;;;;;;5083864;27;20054;-74
2022/04/20 08:31:40;;;;;;;5.03;2.35;;;;;;;;;;5101577;27;20035;-75
2022/04/20 08:34:06;;;;;;;8.20;2.53;;;;;;;;;;5101250;28;20058;-76
2022/04/20 08:36:33;;;;;;;6.65;2.22;;;;;;;;;;5101654;28;20043;-74
2022/04/20 08:38:59;;;;;;;6.80;2.17;;;;;;;;;;5101871;28;20123;-73
2022/04/20 08:41:26;;;;;;;11.38;2.25;;;;;;;;;;5120238;28;20039;-74
2022/04/20 08:43:52;;;;;;;11.02;2.50;;;;;;;;;;5101142;28;20042;-75
2022/04/20 08:46:19;;;;;;;9.05;2.25;;;;;;;;;;5075208;28;20046;-74
2022/04/20 08:48:45;;;;;;;4.85;1.85;;;;;;;;;;5080878;28;20043;-74
2022/04/20 08:51:11;;;;;;;7.88;2.50;;;;;;;;;;5081366;28;20122;-72
2022/04/20 08:53:38;;;;;;;6.10;1.77;;;;;;;;;;5080843;28;20043;-73
2022/04/20 08:58:51;;;;;;;6.32;1.95;;;;;;;;;;5040561;28;20052;-74
2022/04/20 09:01:18;;;;;;;5.35;1.70;;;;;;;;;;5080901;28;20043;-74
2022/04/20 09:03:46;;;;;;;5.53;1.90;;;;;;;;;;5064311;28;20174;-73
2022/04/20 09:06:13;;;;;;;7.00;1.70;;;;;;;;;;5081163;28;20491;-73
2022/04/20 09:08:39;;;;;;;8.27;1.88;;;;;;;;;;5081011;28;20039;-74
2022/04/20 09:11:05;;;;;;;6.05;1.77;;;;;;;;;;5081451;28;20128;-74
2022/04/20 09:13:33;;;;;;;5.57;1.52;;;;;;;;;;5080946;28;20048;-73
2022/04/20 09:16:10;;;;;;;3.75;1.20;;;;;;;;;;5064541;28;20375;-74
2022/04/20 09:18:37;;;;;;;6.47;1.40;;;;;;;;;;5081336;28;20119;-74
2022/04/20 09:21:10;;;;;;;6.38;1.73;;;;;;;;;;5099928;28;20044;-73
2022/04/20 09:23:36;;;;;;;5.38;1.70;;;;;;;;;;5063980;28;20051;-74
2022/04/20 09:26:11;;;;;;;4.68;1.50;;;;;;;;;;5081004;28;20040;-73
2022/04/20 09:28:39;;;;;;;9.60;1.67;;;;;;;;;;5081005;28;20055;-74
2022/04/20 09:31:07;;;;;;;6.28;1.38;;;;;;;;;;5081085;28;20052;-74
2022/04/20 09:33:54;;;;;;;5.80;1.55;;;;;;;;;;5080635;28;20400;-73
2022/04/20 09:36:39;;;;;;;8.35;1.85;;;;;;;;;;5081026;28;20127;-74
2022/04/20 09:39:05;;;;;;;5.03;1.52;;;;;;;;;;5080947;28;20051;-73
2022/04/20 09:41:31;;;;;;;4.57;1.40;;;;;;;;;;5082750;28;20051;-72
2022/04/20 09:44:08;;;;;;;6.30;1.30;;;;;;;;;;5084513;28;20434;-73
2022/04/20 09:49:34;;;;;;;13.55;1.92;;;;;;;;;;5104215;27;20520;-71
2022/04/20 09:52:08;;;;;;;14.32;1.80;;;;;;;;;;5103671;27;20118;-72
2022/04/20 09:54:36;;;;;;;11.68;2.00;;;;;;;;;;5106886;27;20035;-72
2022/04/20 09:57:12;;;;;;;8.85;1.70;;;;;;;;;;5085533;27;20040;-72
2022/04/20 09:59:54;;;;;;;6.35;1.65;;;;;;;;;;5083740;28;20114;-73
2022/04/20 10:02:20;;;;;;;5.88;1.55;;;;;;;;;;5083340;28;20046;-72
2022/04/20 10:04:48;;;;;;;5.47;1.48;;;;;;;;;;5103605;28;20044;-71
2022/04/20 10:07:14;;;;;;;7.43;1.50;;;;;;;;;;5083784;28;20048;-71
2022/04/20 10:09:40;;;;;;;17.02;1.92;;;;;;;;;;5084040;28;20504;-70
2022/04/20 10:12:07;;;;;;;16.13;1.85;;;;;;;;;;5083550;28;20059;-71
2022/04/20 10:17:21;;;;;;;9.45;1.55;;;;;;;;;;5100705;28;20338;-71
2022/04/20 10:19:47;;;;;;;8.52;1.50;;;;;;;;;;5083878;28;20419;-71
2022/04/20 10:22:15;;;;;;;7.05;1.90;;;;;;;;;;5083563;28;20114;-71
2022/04/20 10:24:43;;;;;;;7.45;1.60;;;;;;;;;;5066945;28;20071;-71
2022/04/20 10:27:14;;;;;;;6.60;1.40;;;;;;;;;;5083187;28;20078;-71
2022/04/20 10:29:40;;;;;;;4.82;1.40;;;;;;;;;;5082984;28;20162;-71
2022/04/20 10:32:09;;;;;;;6.20;1.50;;;;;;;;;;5083176;28;20051;-72
2022/04/20 10:34:36;;;;;;;9.93;1.70;;;;;;;;;;5066563;28;20131;-71
2022/04/20 10:37:03;;;;;;;7.53;1.55;;;;;;;;;;5082812;28;20044;-71
2022/04/20 10:39:34;;;;;;;4.45;1.50;;;;;;;;;;5066305;28;20052;-72
2022/04/20 10:42:15;;;;;;;3.72;1.23;;;;;;;;;;5083322;28;20039;-70
2022/04/20 10:45:03;;;;;;;6.72;1.70;;;;;;;;;;5083290;28;20381;-71
2022/04/20 10:47:32;;;;;;;5.47;1.27;;;;;;;;;;5083291;28;20191;-71
2022/04/20 10:50:17;;;;;;;5.35;1.48;;;;;;;;;;5082924;28;20477;-72
2022/04/20 10:52:46;;;;;;;3.83;1.42;;;;;;;;;;5083207;28;20458;-72
2022/04/20 10:55:13;;;;;;;4.22;1.42;;;;;;;;;;5082925;28;20119;-72
2022/04/20 10:57:40;;;;;;;5.60;1.50;;;;;;;;;;5083120;28;20407;-73
2022/04/20 11:00:21;;;;;;;4.72;1.35;;;;;;;;;;5082474;28;20046;-72
2022/04/20 11:03:01;;;;;;;4.53;1.30;;;;;;;;;;5082860;28;20036;-73
2022/04/20 11:05:27;;;;;;;3.30;1.20;;;;;;;;;;5082760;28;20278;-71
2022/04/20 11:08:03;;;;;;;14.30;3.17;;;;;;;;;;5083035;28;20378;-71
2022/04/20 11:10:30;;;;;;;4.65;1.27;;;;;;;;;;5082772;28;20515;-71
2022/04/20 11:19:05;;;;;;;6.30;1.20;;;;;;;;;;5099404;28;20299;-72
2022/04/20 11:21:31;;;;;;;4.10;1.20;;;;;;;;;;5082757;28;20119;-70
2022/04/20 11:23:57;;;;;;;4.75;1.25;;;;;;;;;;5088309;27;20236;-70
2022/04/20 11:26:31;;;;;;;3.90;1.23;;;;;;;;;;5102677;27;20035;-73
2022/04/20 11:29:02;;;;;;;5.22;1.25;;;;;;;;;;5102888;27;20035;-71
2022/04/20 11:31:38;;;;;;;2.97;1.08;;;;;;;;;;5102474;27;20077;-70
2022/04/20 11:34:06;;;;;;;4.65;1.23;;;;;;;;;;5102319;27;20103;-71
2022/04/20 11:36:32;;;;;;;3.92;1.40;;;;;;;;;;5102404;27;20496;-72
2022/04/20 11:38:58;;;;;;;3.90;1.27;;;;;;;;;;5085160;27;20054;-70
2022/04/20 11:41:24;;;;;;;4.28;1.20;;;;;;;;;;5102370;27;20039;-70
2022/04/20 11:43:50;;;;;;;4.75;1.17;;;;;;;;;;5084796;27;20050;-71
2022/04/20 11:46:17;;;;;;;3.25;1.20;;;;;;;;;;5102014;27;20096;-72
2022/04/20 11:48:54;;;;;;;2.33;0.90;;;;;;;;;;5120572;27;20039;-71
2022/04/20 11:51:24;;;;;;;2.90;1.00;;;;;;;;;;5101958;27;20134;-72
2022/04/20 11:53:52;;;;;;;3.28;1.08;;;;;;;;;;5083118;28;20051;-70
2022/04/20 11:56:31;;;;;;;3.97;1.30;;;;;;;;;;5081734;28;20089;-73
2022/04/20 11:58:58;;;;;;;3.55;1.20;;;;;;;;;;5082485;28;20238;-71
2022/04/20 12:01:28;;;;;;;2.63;1.10;;;;;;;;;;5083385;27;20045;-72
2022/04/20 12:03:55;;;;;;;3.70;1.10;;;;;;;;;;5100674;27;20427;-71
2022/04/20 12:06:23;;;;;;;5.85;1.30;;;;;;;;;;5102164;27;20184;-71
2022/04/20 12:08:52;;;;;;;5.20;1.10;;;;;;;;;;5101732;27;20118;-71
2022/04/20 12:11:18;;;;;;;4.07;1.20;;;;;;;;;;5084901;27;20061;-71
2022/04/20 12:13:45;;;;;;;5.60;1.35;;;;;;;;;;5102111;27;20047;-71
2022/04/20 12:16:12;;;;;;;4.63;1.10;;;;;;;;;;5101943;27;20299;-71
2022/04/20 12:18:42;;;;;;;3.70;1.20;;;;;;;;;;5097700;28;20650;-71
2022/04/20 12:21:27;;;;;;;4.30;1.13;;;;;;;;;;5081158;28;20480;-71
2022/04/20 12:23:53;;;;;;;3.72;1.13;;;;;;;;;;5081352;28;20127;-71
2022/04/20 12:26:27;;;;;;;3.05;1.20;;;;;;;;;;5081031;28;20039;-71
2022/04/20 12:28:58;;;;;;;1.80;0.90;;;;;;;;;;5081467;28;20101;-71
2022/04/20 12:31:24;;;;;;;3.17;1.20;;;;;;;;;;5081239;28;20097;-71
2022/04/20 12:34:07;;;;;;;2.88;1.10;;;;;;;;;;5080830;28;20118;-71
2022/04/20 12:36:52;;;;;;;3.60;0.90;;;;;;;;;;5064632;28;20484;-72
2022/04/20 12:39:25;;;;;;;3.22;1.05;;;;;;;;;;5081179;28;20050;-71
2022/04/20 12:41:53;;;;;;;2.40;0.90;;;;;;;;;;5081328;28;20046;-72
2022/04/20 12:44:46;;;;;;;2.75;1.10;;;;;;;;;;5081288;28;20278;-72
2022/04/20 12:47:15;;;;;;;4.15;1.10;;;;;;;;;;5064541;28;20492;-72
2022/04/20 12:49:43;;;;;;;3.53;0.90;;;;;;;;;;5081124;28;20229;-72
2022/04/20 12:52:11;;;;;;;2.97;1.00;;;;;;;;;;5080193;28;20043;-72
2022/04/20 12:54:37;;;;;;;3.20;1.10;;;;;;;;;;5064658;28;20048;-71
2022/04/20 13:03:02;;;;;;;4.03;1.00;;;;;;;;;;5081336;28;20126;-72
2022/04/20 13:05:29;;;;;;;4.05;1.05;;;;;;;;;;5064111;28;20077;-71
2022/04/20 13:07:55;;;;;;;3.45;1.00;;;;;;;;;;5080950;28;20215;-71
2022/04/20 13:10:22;;;;;;;3.33;1.00;;;;;;;;;;5080825;28;20050;-71
2022/04/20 13:12:54;;;;;;;4.75;1.00;;;;;;;;;;5080977;28;20043;-71
2022/04/20 13:15:21;;;;;;;3.38;1.10;;;;;;;;;;5083262;28;20104;-71
2022/04/20 13:17:47;;;;;;;4.07;1.15;;;;;;;;;;5084774;28;20047;-71
2022/04/20 13:20:14;;;;;;;3.50;1.30;;;;;;;;;;5084572;28;20036;-71
2022/04/20 13:22:40;;;;;;;2.85;1.05;;;;;;;;;;5084902;28;20035;-72
2022/04/20 13:27:54;;;;;;;3.85;1.40;;;;;;;;;;5084888;28;20420;-71
2022/04/20 13:30:27;;;;;;;3.35;1.02;;;;;;;;;;5084719;28;20469;-71
2022/04/20 13:32:55;;;;;;;3.97;1.30;;;;;;;;;;5084394;28;20040;-72
2022/04/20 13:35:21;;;;;;;3.83;1.30;;;;;;;;;;5084319;28;20083;-71
2022/04/20 13:37:47;;;;;;;4.03;1.15;;;;;;;;;;5084837;28;20091;-71
2022/04/20 13:40:13;;;;;;;4.78;1.48;;;;;;;;;;5067677;28;20130;-73
2022/04/20 13:42:39;;;;;;;3.70;1.33;;;;;;;;;;5084658;28;20078;-72
2022/04/20 13:45:06;;;;;;;4.28;1.30;;;;;;;;;;5067537;28;20043;-72
2022/04/20 13:47:32;;;;;;;3.63;1.20;;;;;;;;;;5084046;28;20062;-72
2022/04/20 13:49:58;;;;;;;5.95;1.67;;;;;;;;;;5084253;28;20496;-72
2022/04/20 13:52:24;;;;;;;3.72;1.52;;;;;;;;;;5084557;28;20051;-72
2022/04/20 13:54:50;;;;;;;4.68;1.50;;;;;;;;;;5067411;28;20305;-72
2022/04/20 13:57:16;;;;;;;5.38;1.60;;;;;;;;;;5084379;28;20122;-73
2022/04/20 13:59:42;;;;;;;5.03;1.48;;;;;;;;;;5098620;27;20039;-71
2022/04/20 14:02:09;;;;;;;3.63;1.35;;;;;;;;;;5104441;27;20035;-71
2022/04/20 14:04:35;;;;;;;4.45;1.60;;;;;;;;;;5104494;27;20043;-71
2022/04/20 14:07:03;;;;;;;5.78;1.65;;;;;;;;;;5104133;27;20135;-71
2022/04/20 14:09:29;;;;;;;4.53;1.60;;;;;;;;;;5087744;27;20419;-72
2022/04/20 14:11:55;;;;;;;6.18;1.60;;;;;;;;;;5098857;28;20514;-72
2022/04/20 14:14:21;;;;;;;4.13;1.75;;;;;;;;;;5067029;28;20047;-72
2022/04/20 14:16:48;;;;;;;5.30;1.65;;;;;;;;;;5083594;28;20044;-71
2022/04/20 14:19:14;;;;;;;6.80;2.05;;;;;;;;;;5101695;28;20104;-71
2022/04/20 14:21:41;;;;;;;6.68;2.00;;;;;;;;;;5083810;28;20044;-72
2022/04/20 14:24:07;;;;;;;10.57;2.00;;;;;;;;;;5083778;28;20048;-71
2022/04/20 14:32:12;;;;;;;5.95;2.05;;;;;;;;;;5083632;28;20047;-71
2022/04/20 14:34:39;;;;;;;4.35;2.00;;;;;;;;;;5083780;28;20133;-72
2022/04/20 14:37:05;;;;;;;4.93;2.08;;;;;;;;;;5083469;28;20039;-72
2022/04/20 14:39:32;;;;;;;4.97;2.17;;;;;;;;;;5083739;28;20310;-73
2022/04/20 14:41:58;;;;;;;4.70;1.95;;;;;;;;;;5084007;28;20044;-72
2022/04/20 14:44:24;;;;;;;5.03;1.90;;;;;;;;;;5083306;28;20036;-73
2022/04/20 14:46:51;;;;;;;5.70;2.03;;;;;;;;;;5066323;28;20039;-71
2022/04/20 14:49:17;;;;;;;4.82;2.10;;;;;;;;;;5066555;28;20618;-72
2022/04/20 14:51:44;;;;;;;5.68;2.38;;;;;;;;;;5101254;28;20059;-73
2022/04/20 14:54:10;;;;;;;6.40;2.17;;;;;;;;;;5083087;28;20035;-72
2022/04/20 14:56:37;;;;;;;5.45;2.33;;;;;;;;;;5082954;28;20044;-72
2022/04/20 14:59:03;;;;;;;4.78;2.08;;;;;;;;;;5082914;28;20105;-72
2022/04/20 15:01:29;;;;;;;4.95;2.10;;;;;;;;;;5083145;28;20055;-73
2022/04/20 15:03:55;;;;;;;7.18;2.00;;;;;;;;;;5065719;28;20480;-72
2022/04/20 15:06:21;;;;;;;6.03;2.00;;;;;;;;;;5066500;28;20187;-72
2022/04/20 15:08:47;;;;;;;5.03;2.42;;;;;;;;;;5082233;28;20124;-72
2022/04/20 15:11:13;;;;;;;4.45;2.00;;;;;;;;;;5082641;28;20197;-70
2022/04/20 15:13:39;;;;;;;5.35;2.40;;;;;;;;;;5099668;28;20047;-72
2022/04/20 15:16:05;;;;;;;5.88;2.22;;;;;;;;;;5083048;28;20163;-72
2022/04/20 15:18:31;;;;;;;6.53;2.75;;;;;;;;;;5082825;28;20497;-72
2022/04/20 15:21:02;;;;;;;5.50;2.40;;;;;;;;;;5082654;28;20252;-72
2022/04/20 15:23:28;;;;;;;5.72;2.40;;;;;;;;;;5066132;28;20070;-72
2022/04/20 15:25:54;;;;;;;5.07;2.22;;;;;;;;;;5082343;28;20048;-72
2022/04/20 15:28:21;;;;;;;6.93;2.42;;;;;;;;;;5082069;28;20581;-71
2022/04/20 15:30:47;;;;;;;6.35;2.55;;;;;;;;;;5059275;27;21483;-76
2022/04/20 15:33:16;;;;;;;6.25;2.20;;;;;;;;;;5076699;27;20058;-77
2022/04/20 15:35:42;;;;;;;7.47;2.15;;;;;;;;;;5097611;27;20080;-77